createdAt,value
2023-02-15T00:01:47.085Z,10.30
2023-02-15T00:04:14.302Z,10.20
2023-02-15T00:06:40.995Z,11.05
2023-02-15T00:09:07.749Z,10.40
2023-02-15T00:11:52.724Z,9.45
2023-02-15T00:14:22.849Z,9.18
2023-02-15T00:16:50.443Z,10.02
2023-02-15T00:19:18.172Z,9.93
2023-02-15T00:21:45.113Z,9.93
2023-02-15T00:24:12.774Z,10.45
2023-02-15T00:26:40.029Z,10.95
2023-02-15T00:29:06.794Z,9.40
2023-02-15T00:31:33.982Z,9.27
2023-02-15T00:34:04.753Z,9.32
2023-02-15T00:36:31.356Z,9.57
2023-02-15T00:38:57.829Z,9.25
2023-02-15T00:41:24.442Z,10.57
2023-02-15T00:43:50.940Z,10.13
2023-02-15T00:46:17.494Z,9.77
2023-02-15T00:48:44.043Z,9.85
2023-02-15T00:51:10.477Z,8.80
2023-02-15T00:53:36.893Z,9.73
2023-02-15T00:56:03.643Z,9.25
2023-02-15T00:58:30.315Z,9.77
2023-02-15T01:01:03.057Z,9.18
2023-02-15T01:03:29.559Z,9.48
2023-02-15T01:05:56.006Z,9.30
2023-02-15T01:08:22.371Z,8.18
2023-02-15T01:10:48.858Z,8.80
2023-02-15T01:13:16.372Z,8.95
2023-02-15T01:15:44.157Z,9.43
2023-02-15T01:18:13.768Z,8.60
2023-02-15T01:20:42.099Z,9.57
2023-02-15T01:23:09.069Z,8.68
2023-02-15T01:25:36.207Z,8.40
2023-02-15T01:28:02.824Z,8.30
2023-02-15T01:30:29.669Z,8.15
2023-02-15T01:32:56.068Z,8.45
2023-02-15T01:35:22.488Z,8.68
2023-02-15T01:37:48.864Z,8.85
2023-02-15T01:40:17.623Z,7.93
2023-02-15T01:42:44.125Z,8.52
2023-02-15T01:45:25.387Z,8.38
2023-02-15T01:47:55.583Z,8.60
2023-02-15T01:50:28.384Z,8.32
2023-02-15T01:53:04.012Z,9.25
2023-02-15T01:55:36.640Z,8.30
2023-02-15T01:58:03.579Z,7.95
2023-02-15T02:00:30.171Z,8.50
2023-02-15T02:02:57.820Z,7.95
2023-02-15T02:05:24.335Z,8.63
2023-02-15T02:07:52.874Z,8.18
2023-02-15T02:10:21.285Z,8.45
2023-02-15T02:12:49.252Z,8.68
2023-02-15T02:15:16.025Z,8.82
2023-02-15T02:18:00.099Z,8.40
2023-02-15T02:20:44.613Z,10.05
2023-02-15T02:23:11.051Z,7.97
2023-02-15T02:25:40.497Z,7.82
2023-02-15T02:28:09.744Z,8.82
2023-02-15T02:30:48.541Z,7.93
2023-02-15T02:33:29.106Z,8.70
2023-02-15T02:36:06.073Z,8.50
2023-02-15T02:38:51.099Z,8.90
2023-02-15T02:41:41.084Z,8.88
2023-02-15T02:44:11.531Z,9.15
2023-02-15T02:46:51.073Z,8.38
2023-02-15T02:49:17.508Z,7.35
2023-02-15T02:51:44.123Z,8.40
2023-02-15T02:54:10.613Z,9.32
2023-02-15T02:56:46.113Z,8.30
2023-02-15T02:59:21.327Z,8.23
2023-02-15T03:01:51.656Z,7.50
2023-02-15T03:04:24.795Z,8.70
2023-02-15T03:07:00.165Z,8.43
2023-02-15T03:09:35.654Z,8.38
2023-02-15T03:12:04.342Z,7.82
2023-02-15T03:14:30.943Z,7.80
2023-02-15T03:16:57.479Z,7.95
2023-02-15T03:19:26.043Z,7.88
2023-02-15T03:21:58.648Z,7.38
2023-02-15T03:24:27.840Z,7.90
2023-02-15T03:26:55.427Z,6.55
2023-02-15T03:29:23.314Z,7.30
2023-02-15T03:31:53.035Z,7.18
2023-02-15T03:34:19.716Z,7.43
2023-02-15T03:37:21.862Z,7.05
2023-02-15T03:39:48.276Z,8.15
2023-02-15T03:42:19.148Z,6.90
2023-02-15T03:45:14.923Z,6.28
2023-02-15T03:47:44.099Z,7.18
2023-02-15T03:50:46.418Z,7.03
2023-02-15T03:53:15.007Z,7.05
2023-02-15T03:55:41.506Z,7.45
2023-02-15T03:58:26.445Z,7.05
2023-02-15T04:01:14.858Z,6.78
2023-02-15T04:03:42.564Z,6.35
2023-02-15T04:06:08.984Z,6.75
2023-02-15T04:08:55.298Z,6.13
2023-02-15T04:11:21.788Z,5.80
2023-02-15T04:13:48.279Z,7.20
2023-02-15T04:16:15.001Z,5.88
2023-02-15T04:19:01.672Z,6.43
2023-02-15T04:21:47.744Z,6.72
2023-02-15T04:24:33.409Z,6.43
2023-02-15T04:27:00.324Z,5.72
2023-02-15T04:29:27.643Z,5.90
2023-02-15T04:31:55.039Z,6.10
2023-02-15T04:34:21.549Z,5.95
2023-02-15T04:36:47.940Z,6.97
2023-02-15T04:39:15.320Z,5.78
2023-02-15T04:41:41.799Z,6.13
2023-02-15T04:44:08.228Z,5.32
2023-02-15T04:46:34.714Z,6.03
2023-02-15T04:49:01.167Z,6.35
2023-02-15T04:51:27.667Z,5.80
2023-02-15T04:53:54.122Z,5.45
2023-02-15T04:56:20.948Z,5.25
2023-02-15T04:58:47.376Z,5.82
2023-02-15T05:01:13.975Z,5.63
2023-02-15T05:03:40.457Z,5.80
2023-02-15T05:06:06.900Z,5.72
2023-02-15T05:08:33.403Z,5.10
2023-02-15T05:10:59.881Z,5.18
2023-02-15T05:13:26.339Z,4.85
2023-02-15T05:15:53.309Z,5.32
2023-02-15T05:18:21.139Z,5.50
2023-02-15T05:20:48.077Z,4.97
2023-02-15T05:23:14.517Z,4.95
2023-02-15T05:25:59.890Z,4.80
2023-02-15T05:28:28.004Z,5.68
2023-02-15T05:31:03.811Z,5.20
2023-02-15T05:33:30.432Z,5.38
2023-02-15T05:35:56.847Z,4.50
2023-02-15T05:38:23.243Z,4.70
2023-02-15T05:40:50.237Z,4.80
2023-02-15T05:43:16.724Z,4.88
2023-02-15T05:45:47.137Z,5.38
2023-02-15T05:48:13.550Z,4.97
2023-02-15T05:50:39.940Z,5.30
2023-02-15T05:53:06.445Z,4.55
2023-02-15T05:55:33.007Z,4.65
2023-02-15T05:57:59.509Z,4.40
2023-02-15T06:00:26.415Z,5.70
2023-02-15T06:02:52.855Z,4.97
2023-02-15T06:05:19.316Z,5.20
2023-02-15T06:07:46.002Z,4.97
2023-02-15T06:10:12.689Z,5.07
2023-02-15T06:12:39.242Z,6.07
2023-02-15T06:15:05.882Z,5.05
2023-02-15T06:17:32.309Z,5.20
2023-02-15T06:19:58.824Z,4.97
2023-02-15T06:22:25.318Z,5.93
2023-02-15T06:24:51.682Z,5.80
2023-02-15T06:27:18.184Z,5.82
2023-02-15T06:29:44.664Z,5.88
2023-02-15T06:32:11.198Z,5.28
2023-02-15T06:34:37.658Z,6.05
2023-02-15T06:37:04.196Z,6.30
2023-02-15T06:39:30.653Z,5.18
2023-02-15T06:41:58.495Z,5.05
2023-02-15T06:44:24.903Z,5.70
2023-02-15T06:46:51.367Z,5.90
2023-02-15T06:49:17.786Z,5.30
2023-02-15T06:51:44.213Z,5.45
2023-02-15T06:54:10.617Z,5.90
2023-02-15T06:56:37.147Z,5.18
2023-02-15T06:59:04.286Z,5.47
2023-02-15T07:01:30.914Z,5.35
2023-02-15T07:03:57.327Z,5.22
2023-02-15T07:06:23.772Z,5.78
2023-02-15T07:08:50.459Z,5.55
2023-02-15T07:11:35.220Z,6.07
2023-02-15T07:14:01.589Z,5.70
2023-02-15T07:16:28.112Z,6.07
2023-02-15T07:18:54.564Z,5.78
2023-02-15T07:21:21.054Z,5.50
2023-02-15T07:23:47.529Z,4.78
2023-02-15T07:26:13.963Z,5.57
2023-02-15T07:28:40.452Z,5.15
2023-02-15T07:31:07.279Z,4.78
2023-02-15T07:33:34.052Z,5.25
2023-02-15T07:36:03.253Z,5.10
2023-02-15T07:38:34.304Z,4.82
2023-02-15T07:41:05.855Z,5.28
2023-02-15T07:43:33.945Z,5.60
2023-02-15T07:46:01.708Z,5.43
2023-02-15T07:48:28.360Z,4.85
2023-02-15T07:50:54.829Z,4.63
2023-02-15T07:53:21.234Z,8.10
2023-02-15T07:55:47.672Z,5.32
2023-02-15T07:58:14.048Z,5.25
2023-02-15T08:00:58.841Z,7.75
2023-02-15T08:03:27.840Z,6.18
2023-02-15T08:05:59.124Z,5.53
2023-02-15T08:08:32.210Z,5.90
2023-02-15T08:11:26.594Z,5.50
2023-02-15T08:13:56.144Z,5.60
2023-02-15T08:16:26.615Z,5.65
2023-02-15T08:18:53.678Z,6.55
2023-02-15T08:21:20.926Z,6.78
2023-02-15T08:23:47.381Z,6.20
2023-02-15T08:26:13.947Z,6.38
2023-02-15T08:28:42.318Z,6.18
2023-02-15T08:31:09.743Z,5.68
2023-02-15T08:33:37.236Z,7.05
2023-02-15T08:36:04.952Z,6.20
2023-02-15T08:38:33.515Z,5.32
2023-02-15T08:41:10.166Z,6.50
2023-02-15T08:43:36.641Z,6.00
2023-02-15T08:46:03.156Z,6.20
2023-02-15T08:48:29.594Z,5.60
2023-02-15T08:50:56.175Z,5.97
2023-02-15T08:53:22.824Z,6.07
2023-02-15T08:55:56.264Z,6.60
2023-02-15T08:58:22.695Z,6.28
2023-02-15T09:00:49.182Z,6.68
2023-02-15T09:03:15.751Z,5.55
2023-02-15T09:05:42.215Z,7.32
2023-02-15T09:08:08.760Z,7.10
2023-02-15T09:10:35.221Z,6.70
2023-02-15T09:13:01.667Z,7.95
2023-02-15T09:15:28.274Z,5.95
2023-02-15T09:17:54.652Z,6.50
2023-02-15T09:20:21.111Z,6.07
2023-02-15T09:22:47.535Z,7.10
2023-02-15T09:25:14.659Z,6.20
2023-02-15T09:27:42.148Z,6.78
2023-02-15T09:30:09.110Z,6.40
2023-02-15T09:32:35.545Z,6.00
2023-02-15T09:35:02.003Z,5.82
2023-02-15T09:37:28.455Z,6.25
2023-02-15T09:39:55.666Z,6.15
2023-02-15T09:42:32.600Z,6.72
2023-02-15T09:45:04.505Z,6.15
2023-02-15T09:47:38.092Z,5.85
2023-02-15T09:50:23.513Z,7.07
2023-02-15T09:52:49.889Z,7.30
2023-02-15T09:55:25.526Z,6.00
2023-02-15T09:58:00.963Z,5.70
2023-02-15T10:00:36.523Z,5.97
2023-02-15T10:03:12.909Z,7.15
2023-02-15T10:05:42.072Z,6.18
2023-02-15T10:08:25.282Z,6.15
2023-02-15T10:11:21.323Z,7.80
2023-02-15T10:13:55.832Z,6.30
2023-02-15T10:16:42.555Z,7.40
2023-02-15T10:19:15.464Z,7.93
2023-02-15T10:21:44.983Z,6.43
2023-02-15T10:24:42.110Z,6.78
2023-02-15T10:27:15.106Z,7.22
2023-02-15T10:29:47.494Z,8.48
2023-02-15T10:34:44.349Z,8.05
2023-02-15T10:37:10.764Z,7.80
2023-02-15T10:39:54.333Z,7.63
2023-02-15T10:42:23.814Z,7.20
2023-02-15T10:44:50.209Z,7.45
2023-02-15T10:47:16.592Z,6.78
2023-02-15T10:49:58.323Z,7.10
2023-02-15T10:52:43.539Z,8.07
2023-02-15T10:55:24.011Z,9.07
2023-02-15T10:58:26.866Z,9.18
2023-02-15T11:03:19.655Z,8.07
2023-02-15T11:05:55.933Z,8.85
2023-02-15T11:08:24.613Z,10.48
2023-02-15T11:10:54.992Z,9.85
2023-02-15T11:13:23.416Z,8.48
2023-02-15T11:15:49.877Z,9.63
2023-02-15T11:18:19.223Z,8.80
2023-02-15T11:20:55.355Z,8.75
2023-02-15T11:23:21.893Z,10.73
2023-02-15T11:26:07.305Z,9.07
2023-02-15T11:28:52.205Z,9.30
2023-02-15T11:31:20.443Z,9.15
2023-02-15T11:33:48.733Z,10.23
2023-02-15T11:36:21.311Z,8.65
2023-02-15T11:38:49.985Z,9.32
2023-02-15T11:41:20.176Z,8.80
2023-02-15T11:43:53.526Z,8.65
2023-02-15T11:46:22.008Z,8.52
2023-02-15T11:48:48.713Z,8.52
2023-02-15T11:51:17.140Z,8.60
2023-02-15T11:53:44.734Z,8.70
2023-02-15T11:56:18.153Z,8.68
2023-02-15T11:58:56.929Z,8.77
2023-02-15T12:01:37.697Z,8.50
2023-02-15T12:04:16.936Z,8.82
2023-02-15T12:07:03.757Z,10.40
2023-02-15T12:09:36.114Z,9.02
2023-02-15T12:14:47.113Z,9.30
2023-02-15T12:17:14.386Z,8.90
2023-02-15T12:19:41.644Z,8.80
2023-02-15T12:22:19.153Z,9.30
2023-02-15T12:24:47.220Z,9.10
2023-02-15T12:27:16.722Z,9.48
2023-02-15T12:29:45.328Z,8.55
2023-02-15T12:32:19.653Z,8.82
2023-02-15T12:34:47.633Z,9.10
2023-02-15T12:37:35.663Z,9.25
2023-02-15T12:40:11.352Z,9.02
2023-02-15T12:42:45.611Z,9.18
2023-02-15T12:45:23.032Z,9.32
2023-02-15T12:48:08.478Z,8.75
2023-02-15T12:50:35.246Z,8.52
2023-02-15T12:53:13.767Z,9.48
2023-02-15T12:55:50.181Z,8.55
2023-02-15T12:58:18.648Z,8.90
2023-02-15T13:00:45.605Z,10.98
2023-02-15T13:03:22.729Z,8.32
2023-02-15T13:05:51.811Z,8.57
2023-02-15T13:08:22.545Z,10.48
2023-02-15T13:11:04.794Z,8.10
2023-02-15T13:13:35.573Z,9.85
2023-02-15T13:16:12.587Z,9.43
2023-02-15T13:18:40.118Z,9.43
2023-02-15T13:21:10.830Z,9.02
2023-02-15T13:23:38.671Z,9.13
2023-02-15T13:26:06.198Z,9.60
2023-02-15T13:28:38.606Z,12.65
2023-02-15T13:33:34.423Z,10.52
2023-02-15T13:36:00.922Z,9.98
2023-02-15T13:38:36.414Z,9.52
2023-02-15T13:41:05.278Z,9.85
2023-02-15T13:43:50.300Z,10.23
2023-02-15T13:46:28.647Z,9.07
2023-02-15T13:48:58.057Z,10.48
2023-02-15T13:51:30.678Z,10.48
2023-02-15T13:54:17.357Z,9.73
2023-02-15T13:56:45.365Z,9.98
2023-02-15T13:59:12.096Z,9.57
2023-02-15T14:01:58.766Z,9.48
2023-02-15T14:04:34.471Z,10.05
2023-02-15T14:07:17.562Z,10.38
2023-02-15T14:09:48.599Z,9.57
2023-02-15T14:12:15.108Z,9.68
2023-02-15T14:14:41.741Z,10.63
2023-02-15T14:17:26.929Z,9.73
2023-02-15T14:20:02.407Z,9.80
2023-02-15T14:22:49.052Z,9.48
2023-02-15T14:25:21.891Z,9.43
2023-02-15T14:27:55.192Z,9.32
2023-02-15T14:30:24.216Z,9.05
2023-02-15T14:32:53.308Z,9.50
2023-02-15T14:35:21.004Z,8.75
2023-02-15T14:38:01.948Z,9.68
2023-02-15T14:40:46.792Z,11.10
2023-02-15T14:43:20.407Z,9.57
2023-02-15T14:45:49.819Z,8.98
2023-02-15T14:48:21.483Z,8.88
2023-02-15T14:50:48.373Z,8.98
2023-02-15T14:53:33.479Z,9.48
2023-02-15T14:56:06.205Z,9.48
2023-02-15T14:58:33.087Z,9.38
2023-02-15T15:01:10.394Z,9.15
2023-02-15T15:03:37.569Z,9.02
2023-02-15T15:06:06.179Z,9.20
2023-02-15T15:08:38.323Z,9.30
2023-02-15T15:11:42.041Z,8.30
2023-02-15T15:14:09.799Z,8.90
2023-02-15T15:16:36.273Z,8.30
2023-02-15T15:19:03.789Z,8.82
2023-02-15T15:21:45.533Z,9.23
2023-02-15T15:24:31.910Z,9.20
2023-02-15T15:27:17.504Z,8.73
2023-02-15T15:29:45.756Z,9.90
2023-02-15T15:32:27.943Z,9.18
2023-02-15T15:35:05.563Z,10.02
2023-02-15T15:37:44.081Z,9.68
2023-02-15T15:40:16.436Z,9.70
2023-02-15T15:45:27.640Z,10.27
2023-02-15T15:48:06.962Z,9.50
2023-02-15T15:50:34.610Z,10.35
2023-02-15T15:53:02.273Z,10.48
2023-02-15T15:55:30.295Z,10.95
2023-02-15T15:57:58.411Z,10.70
2023-02-15T16:00:43.594Z,10.95
2023-02-15T16:03:30.314Z,11.20
2023-02-15T16:05:57.251Z,11.02
2023-02-15T16:08:34.009Z,10.73
2023-02-15T16:11:01.355Z,10.93
2023-02-15T16:13:27.934Z,10.73
2023-02-15T16:15:55.952Z,11.02
2023-02-15T16:18:26.127Z,10.77
2023-02-15T16:20:56.517Z,11.60
2023-02-15T16:23:25.681Z,10.55
2023-02-15T16:26:10.611Z,11.32
2023-02-15T16:28:37.028Z,11.18
2023-02-15T16:31:13.556Z,10.70
2023-02-15T16:33:40.891Z,11.50
2023-02-15T16:36:11.129Z,11.02
2023-02-15T16:38:43.678Z,11.30
2023-02-15T16:41:23.654Z,10.95
2023-02-15T16:43:50.718Z,11.15
2023-02-15T16:46:21.650Z,10.38
2023-02-15T16:48:49.752Z,11.18
2023-02-15T16:51:21.469Z,11.43
2023-02-15T16:53:49.056Z,11.52
2023-02-15T16:56:17.020Z,11.00
2023-02-15T16:58:45.025Z,11.55
2023-02-15T17:01:13.101Z,12.27
2023-02-15T17:03:40.485Z,11.50
2023-02-15T17:06:20.517Z,11.52
2023-02-15T17:08:48.044Z,12.38
2023-02-15T17:11:21.643Z,12.25
2023-02-15T17:14:10.574Z,12.73
2023-02-15T17:16:38.233Z,12.35
2023-02-15T17:19:30.960Z,11.93
2023-02-15T17:24:32.632Z,13.75
2023-02-15T17:27:01.808Z,11.90
2023-02-15T17:29:38.609Z,12.30
2023-02-15T17:32:06.542Z,13.23
2023-02-15T17:34:50.278Z,12.98
2023-02-15T17:37:28.653Z,14.05
2023-02-15T17:39:55.675Z,14.32
2023-02-15T17:42:22.074Z,13.43
2023-02-15T17:44:49.229Z,14.15
2023-02-15T17:47:20.448Z,14.07
2023-02-15T17:49:49.978Z,15.23
2023-02-15T17:52:17.814Z,15.48
2023-02-15T17:55:02.864Z,14.13
2023-02-15T17:57:29.882Z,16.17
2023-02-15T18:00:14.655Z,16.23
2023-02-15T18:02:59.716Z,15.32
2023-02-15T18:05:44.674Z,17.92
2023-02-15T18:08:40.231Z,16.55
2023-02-15T18:11:25.049Z,17.00
2023-02-15T18:13:51.441Z,17.23
2023-02-15T18:16:21.610Z,18.17
2023-02-15T18:18:48.080Z,16.63
2023-02-15T18:21:14.900Z,17.70
2023-02-15T18:23:42.523Z,17.27
2023-02-15T18:26:12.934Z,18.67
2023-02-15T18:28:39.353Z,18.48
2023-02-15T18:31:06.163Z,19.02
2023-02-15T18:33:37.321Z,21.10
2023-02-15T18:36:06.681Z,18.42
2023-02-15T18:38:33.416Z,19.52
2023-02-15T18:41:01.504Z,19.98
2023-02-15T18:43:28.130Z,20.08
2023-02-15T18:45:54.611Z,19.23
2023-02-15T18:48:21.021Z,19.83
2023-02-15T18:50:47.539Z,19.38
2023-02-15T18:53:20.788Z,19.98
2023-02-15T18:55:47.562Z,20.73
2023-02-15T18:58:16.282Z,18.38
2023-02-15T19:00:45.435Z,19.92
2023-02-15T19:03:13.073Z,21.15
2023-02-15T19:05:40.706Z,18.55
2023-02-15T19:08:13.190Z,18.98
2023-02-15T19:10:39.591Z,19.42
2023-02-15T19:13:09.839Z,20.35
2023-02-15T19:15:36.561Z,22.20
2023-02-15T19:18:03.361Z,24.20
2023-02-15T19:20:31.448Z,24.08
2023-02-15T19:23:00.583Z,22.73
2023-02-15T19:25:28.489Z,20.40
2023-02-15T19:27:55.412Z,22.52
2023-02-15T19:30:23.672Z,21.85
2023-02-15T19:32:50.157Z,21.85
2023-02-15T19:35:17.569Z,21.95
2023-02-15T19:37:45.732Z,21.75
2023-02-15T19:40:32.446Z,26.90
2023-02-15T19:42:59.003Z,24.08
2023-02-15T19:45:26.950Z,23.00
2023-02-15T19:47:55.374Z,22.08
2023-02-15T19:50:23.739Z,22.77
2023-02-15T19:52:50.440Z,22.15
2023-02-15T19:55:28.848Z,23.58
2023-02-15T19:57:56.144Z,23.25
2023-02-15T20:00:25.649Z,24.25
2023-02-15T20:02:52.540Z,23.83
2023-02-15T20:05:19.601Z,22.25
2023-02-15T20:07:47.428Z,23.30
2023-02-15T20:10:17.821Z,23.25
2023-02-15T20:12:44.731Z,24.27
2023-02-15T20:15:19.101Z,24.25
2023-02-15T20:17:45.539Z,24.77
2023-02-15T20:20:13.557Z,24.15
2023-02-15T20:22:41.033Z,25.20
2023-02-15T20:25:10.328Z,22.67
2023-02-15T20:27:37.765Z,22.83
2023-02-15T20:30:04.719Z,22.10
2023-02-15T20:32:31.356Z,22.70
2023-02-15T20:34:57.942Z,22.10
2023-02-15T20:37:28.876Z,21.50
2023-02-15T20:39:55.352Z,23.60
2023-02-15T20:42:21.712Z,23.08
2023-02-15T20:44:48.148Z,22.02
2023-02-15T20:47:14.538Z,21.40
2023-02-15T20:49:41.928Z,22.17
2023-02-15T20:52:18.366Z,20.70
2023-02-15T20:54:44.857Z,20.60
2023-02-15T20:57:14.313Z,21.70
2023-02-15T20:59:41.087Z,20.50
2023-02-15T21:02:13.348Z,22.52
2023-02-15T21:04:39.746Z,22.63
2023-02-15T21:07:06.158Z,21.92
2023-02-15T21:09:32.647Z,21.67
2023-02-15T21:12:02.527Z,21.83
2023-02-15T21:14:29.360Z,22.10
2023-02-15T21:16:55.792Z,21.63
2023-02-15T21:19:23.374Z,22.48
2023-02-15T21:21:50.788Z,21.92
2023-02-15T21:24:20.249Z,23.20
2023-02-15T21:26:47.136Z,23.00
2023-02-15T21:29:14.724Z,21.00
2023-02-15T21:31:41.343Z,21.80
2023-02-15T21:34:07.825Z,22.33
2023-02-15T21:36:34.346Z,22.52
2023-02-15T21:39:03.451Z,22.80
2023-02-15T21:41:48.549Z,23.30
2023-02-15T21:44:35.008Z,23.17
2023-02-15T21:47:20.116Z,23.23
2023-02-15T21:49:46.491Z,23.58
2023-02-15T21:52:14.315Z,22.08
2023-02-15T21:54:41.316Z,23.45
2023-02-15T21:57:12.765Z,23.50
2023-02-15T21:59:39.774Z,21.70
2023-02-15T22:02:21.094Z,21.67
2023-02-15T22:04:47.475Z,23.75
2023-02-15T22:07:16.403Z,22.95
2023-02-15T22:09:42.782Z,22.17
2023-02-15T22:12:14.624Z,22.23
2023-02-15T22:14:41.875Z,22.45
2023-02-15T22:17:19.055Z,21.77
2023-02-15T22:19:46.348Z,22.58
2023-02-15T22:22:13.148Z,21.67
2023-02-15T22:24:39.652Z,24.75
2023-02-15T22:27:06.665Z,21.95
2023-02-15T22:29:33.998Z,22.52
2023-02-15T22:32:00.477Z,21.42
2023-02-15T22:34:30.982Z,23.73
2023-02-15T22:36:58.209Z,24.17
2023-02-15T22:39:25.404Z,22.15
2023-02-15T22:41:52.202Z,21.75
2023-02-15T22:44:23.599Z,22.58
2023-02-15T22:46:50.362Z,22.40
2023-02-15T22:49:17.021Z,24.42
2023-02-15T22:51:46.141Z,22.92
2023-02-15T22:54:12.538Z,22.98
2023-02-15T22:56:40.104Z,22.15
2023-02-15T22:59:08.425Z,23.20
2023-02-15T23:01:36.000Z,22.58
2023-02-15T23:04:03.773Z,21.70
2023-02-15T23:06:30.714Z,23.15
2023-02-15T23:08:57.133Z,21.20
2023-02-15T23:11:23.600Z,20.95
2023-02-15T23:13:50.100Z,20.92
2023-02-15T23:16:17.018Z,19.75
2023-02-15T23:18:44.765Z,19.10
2023-02-15T23:21:17.294Z,19.25
2023-02-15T23:23:44.560Z,20.65
2023-02-15T23:26:16.959Z,19.83
2023-02-15T23:31:20.985Z,19.40
2023-02-15T23:33:48.117Z,19.27
2023-02-15T23:36:24.399Z,18.60
2023-02-15T23:38:50.865Z,17.90
2023-02-15T23:41:19.392Z,18.55
2023-02-15T23:43:56.587Z,18.58
2023-02-15T23:46:25.736Z,18.10
2023-02-15T23:48:53.122Z,18.35
2023-02-15T23:51:20.365Z,19.13
2023-02-15T23:53:46.767Z,18.30
2023-02-15T23:56:14.101Z,17.48
2023-02-15T23:58:41.877Z,17.90
